Weather at Archar Airport [CLOSED]

Public forecast

Using degrees Celsius for public forecast. Weather courtesy of forecast.io.

Closest aviation weather report (METAR) to Archar Airport

Closest report is Craiova International Airport, 52.8 nm (97.8 km) NE.

2024/05/26 17:00 (retrieved 19 minutes ago)

LRCV 261700Z 14004KT CAVOK 23/07 Q1018

Closest aviation forecast (TAF) to Archar Airport

Closest forecast is Niš Constantine the Great Airport, 53.2 nm (98.5 km) WSW.

2024/05/26 12:21 (retrieved 5 hours ago)

TAF LYNI 261100Z 2612/2712 07008KT 9999 SCT040 TX27/2613Z TN11/2703Z